Time;durP1;ratioP1;P1;durP2;ratioP2;P2;SDS_P1;SDS_P2;PMS_P1;PMS_P2;Temp;Humidity;BMP_temperature;BMP_pressure;BME280_temperature;BME280_humidity;BME280_pressure;Samples;Min_cycle;Max_cycle;Signal;HPM_P1;HPM_P2
2024/02/23 00:00:11;;;;;;;26.60;14.70;;;;;;;11.05;89.81;98053.95;679663;1260;140451;-79
2024/02/23 00:15:35;;;;;;;29.20;15.30;;;;;;;11.00;89.18;98038.13;679375;1263;140515;-79
2024/02/23 00:30:39;;;;;;;24.00;15.10;;;;;;;11.09;88.34;98020.48;679409;1259;139528;-79
2024/02/23 00:45:42;;;;;;;26.90;16.70;;;;;;;11.05;87.73;98006.64;677464;1273;139690;-80
2024/02/23 01:00:45;;;;;;;26.30;14.30;;;;;;;10.90;87.76;97997.60;679978;1263;233612;-79
2024/02/23 01:15:49;;;;;;;30.90;15.50;;;;;;;10.81;88.98;97986.48;678047;1263;141184;-79
2024/02/23 01:30:52;;;;;;;24.60;16.10;;;;;;;10.99;89.11;97974.40;681564;1264;139560;-79
2024/02/23 01:45:55;;;;;;;20.70;14.20;;;;;;;11.22;88.41;97971.36;672958;1264;138946;-80
2024/02/23 02:00:59;;;;;;;23.40;14.00;;;;;;;11.38;87.90;97972.98;678177;1264;140193;-79
2024/02/23 02:16:04;;;;;;;21.50;13.60;;;;;;;11.46;87.47;97953.11;679653;1263;140068;-79
2024/02/23 02:31:08;;;;;;;22.30;12.60;;;;;;;11.41;87.76;97954.63;679930;1264;140907;-79
2024/02/23 02:46:11;;;;;;;19.20;12.80;;;;;;;11.41;87.47;97962.10;678966;1263;139185;-79
2024/02/23 03:01:15;;;;;;;19.00;12.00;;;;;;;11.57;86.67;97965.61;679546;1259;140251;-79
2024/02/23 03:16:19;;;;;;;19.80;11.80;;;;;;;11.46;88.24;97969.70;681359;1261;139498;-79
2024/02/23 03:31:23;;;;;;;17.10;11.30;;;;;;;11.19;92.36;97979.06;673909;1264;139496;-80
2024/02/23 03:46:26;;;;;;;20.20;12.70;;;;;;;11.26;94.78;97989.42;673277;1264;139590;-78
2024/02/23 04:01:31;;;;;;;22.10;13.70;;;;;;;11.09;97.36;97986.93;681514;1264;139943;-80
2024/02/23 04:16:37;;;;;;;25.00;15.50;;;;;;;11.00;98.94;97998.39;679264;1261;140433;-79
2024/02/23 04:31:41;;;;;;;25.60;14.80;;;;;;;10.99;100.00;97995.92;679808;1259;139784;-80
2024/02/23 04:46:44;;;;;;;27.10;15.40;;;;;;;11.00;100.00;98010.30;678932;1263;139347;-80
2024/02/23 05:01:48;;;;;;;19.90;12.60;;;;;;;10.99;100.00;98015.33;675683;1263;139501;-79
2024/02/23 05:16:51;;;;;;;17.90;12.00;;;;;;;11.06;100.00;98031.98;681605;1264;139403;-80
2024/02/23 05:31:55;;;;;;;18.90;12.10;;;;;;;11.28;100.00;98051.81;676833;1263;139793;-79
2024/02/23 05:46:59;;;;;;;16.10;9.50;;;;;;;11.49;100.00;98059.50;679661;1261;141120;-79
2024/02/23 06:02:02;;;;;;;13.90;9.70;;;;;;;11.83;100.00;98075.29;677981;1265;140979;-79
2024/02/23 06:17:08;;;;;;;16.10;9.00;;;;;;;11.90;100.00;98100.12;680392;1262;140319;-79
2024/02/23 06:32:14;;;;;;;11.00;7.80;;;;;;;11.93;100.00;98132.11;677896;1259;140832;-79
2024/02/23 06:47:20;;;;;;;9.30;6.90;;;;;;;12.04;100.00;98155.29;678726;1264;141111;-79
2024/02/23 07:02:24;;;;;;;8.90;6.40;;;;;;;12.40;100.00;98188.90;679678;1264;139648;-79
2024/02/23 07:17:28;;;;;;;10.50;6.40;;;;;;;12.67;99.74;98216.89;676930;1263;139424;-81
2024/02/23 07:32:32;;;;;;;10.80;6.60;;;;;;;12.68;99.14;98236.91;675343;1263;139432;-80
2024/02/23 07:47:37;;;;;;;10.00;6.30;;;;;;;12.82;98.02;98262.29;675866;1270;139590;-79
2024/02/23 08:02:43;;;;;;;9.80;6.10;;;;;;;13.12;96.68;98283.67;676100;1263;139477;-81
2024/02/23 08:17:47;;;;;;;9.50;5.80;;;;;;;13.04;96.79;98299.19;674293;1264;138566;-80
2024/02/23 08:32:50;;;;;;;13.80;8.70;;;;;;;13.10;96.63;98328.25;677385;1264;139872;-81
2024/02/23 08:47:54;;;;;;;20.10;12.50;;;;;;;13.11;96.00;98357.63;679108;1264;139337;-78
2024/02/23 09:02:58;;;;;;;14.70;9.60;;;;;;;13.18;95.29;98386.07;680712;1264;139769;-79
2024/02/23 09:18:02;;;;;;;237.20;151.20;;;;;;;13.29;95.15;98422.08;677100;1264;139254;-79
2024/02/23 09:33:09;;;;;;;12.70;8.70;;;;;;;13.39;94.38;98442.71;675633;1275;141915;-80
2024/02/23 09:48:14;;;;;;;15.90;9.00;;;;;;;13.51;91.29;98477.19;680559;1263;139245;-80
2024/02/23 10:03:20;;;;;;;16.00;6.50;;;;;;;13.64;87.16;98500.08;677695;1265;140450;-80
2024/02/23 10:18:24;;;;;;;14.20;6.20;;;;;;;13.70;81.50;98521.83;674888;1265;140590;-80
2024/02/23 10:33:28;;;;;;;7.00;3.20;;;;;;;13.77;75.42;98547.27;680938;1266;139470;-79
2024/02/23 10:48:32;;;;;;;20.60;10.90;;;;;;;13.69;71.22;98575.21;676055;1267;140204;-80
2024/02/23 11:03:38;;;;;;;58.00;25.30;;;;;;;13.72;69.91;98608.19;676924;1264;139480;-79
2024/02/23 11:18:43;;;;;;;60.20;21.90;;;;;;;13.71;68.87;98632.30;675524;1263;140264;-78
2024/02/23 11:33:52;;;;;;;10.10;5.80;;;;;;;13.80;68.20;98652.89;680404;1261;141065;-78
2024/02/23 11:48:55;;;;;;;9.60;4.20;;;;;;;13.86;67.70;98675.96;678446;1266;139241;-78
2024/02/23 12:04:00;;;;;;;9.10;4.60;;;;;;;13.75;67.93;98699.73;678532;1264;138914;-79
2024/02/23 12:19:04;;;;;;;10.00;3.90;;;;;;;13.51;67.83;98708.19;679770;1259;139936;-79
2024/02/23 12:34:12;;;;;;;7.60;4.10;;;;;;;13.54;67.71;98716.92;679077;1265;141014;-79
2024/02/23 12:49:16;;;;;;;25.40;9.20;;;;;;;13.64;68.71;98741.08;679483;1263;139969;-79
2024/02/23 13:04:21;;;;;;;18.90;7.80;;;;;;;13.50;68.66;98747.02;677738;1262;155539;-78
2024/02/23 13:19:24;;;;;;;99.40;40.50;;;;;;;13.59;68.34;98765.52;681025;1265;140938;-79
2024/02/23 13:34:28;;;;;;;41.00;21.30;;;;;;;13.64;68.44;98778.52;678892;1265;139280;-80
2024/02/23 13:49:32;;;;;;;60.70;24.80;;;;;;;13.70;68.56;98812.85;675579;1263;139992;-77
2024/02/23 14:04:37;;;;;;;20.50;9.30;;;;;;;13.55;69.26;98851.09;676844;1265;139429;-78
2024/02/23 14:19:42;;;;;;;12.10;5.70;;;;;;;13.66;69.52;98877.16;678965;1265;140938;-79
2024/02/23 14:34:48;;;;;;;28.30;10.50;;;;;;;13.53;69.26;98898.09;673958;1273;140387;-78
2024/02/23 14:49:52;;;;;;;30.30;13.60;;;;;;;13.49;70.22;98913.35;678609;1266;139466;-78
2024/02/23 15:04:55;;;;;;;24.50;11.20;;;;;;;13.39;70.26;98918.57;680592;1266;139570;-78
2024/02/23 15:20:00;;;;;;;58.70;22.30;;;;;;;13.33;70.56;98925.80;677546;1263;139841;-79
2024/02/23 15:44:58;;;;;;;162.00;56.20;;;;;;;12.99;69.33;98924.26;660717;1301;545054;-79
2024/02/23 16:00:04;;;;;;;195.60;77.80;;;;;;;12.52;70.92;98922.18;673494;1276;138857;-78
2024/02/23 16:15:08;;;;;;;59.30;34.20;;;;;;;11.95;72.29;98943.16;672310;1272;139649;-79
2024/02/23 16:30:15;;;;;;;192.20;76.60;;;;;;;11.53;74.00;98965.23;671736;1276;138689;-79
2024/02/23 16:45:18;;;;;;;77.20;34.60;;;;;;;11.32;75.21;99002.23;674807;1274;140169;-79
2024/02/23 17:00:22;;;;;;;204.20;84.90;;;;;;;11.00;76.15;99029.75;672851;1273;139658;-79
2024/02/23 17:15:26;;;;;;;161.90;62.50;;;;;;;10.83;76.95;99045.73;678362;1266;140754;-79
2024/02/23 17:30:32;;;;;;;104.20;38.30;;;;;;;10.80;76.51;99063.77;680802;1261;139666;-79
2024/02/23 17:45:39;;;;;;;113.50;50.70;;;;;;;10.55;77.34;99070.95;679052;1260;139049;-80
2024/02/23 18:00:44;;;;;;;103.80;39.40;;;;;;;10.51;77.85;99082.02;675617;1264;139677;-79
2024/02/23 18:15:48;;;;;;;149.70;57.80;;;;;;;10.47;78.93;99065.51;679088;1261;140317;-79
2024/02/23 18:30:52;;;;;;;200.60;87.70;;;;;;;10.24;79.90;99072.13;680623;1264;139536;-78
2024/02/23 18:45:56;;;;;;;89.00;37.90;;;;;;;10.17;81.00;99069.13;678390;1262;139185;-79
2024/02/23 19:00:59;;;;;;;190.50;68.50;;;;;;;10.29;81.60;99077.15;680208;1264;139830;-80
2024/02/23 19:16:04;;;;;;;564.00;212.50;;;;;;;10.25;82.22;99081.07;678511;1260;138638;-80
2024/02/23 19:31:08;;;;;;;114.60;46.40;;;;;;;10.22;82.88;99088.23;679084;1264;139657;-80
2024/02/23 19:46:14;;;;;;;124.70;45.70;;;;;;;10.25;82.42;99078.45;677774;1260;140165;-78
2024/02/23 20:01:20;;;;;;;167.40;70.20;;;;;;;10.40;82.40;99072.74;678777;1264;139478;-79
2024/02/23 20:16:24;;;;;;;674.20;306.90;;;;;;;10.50;82.00;99085.86;679621;1263;140288;-81
2024/02/23 20:31:27;;;;;;;43.10;19.90;;;;;;;10.48;81.87;99100.20;676867;1260;143287;-79
2024/02/23 20:46:30;;;;;;;71.50;28.00;;;;;;;10.31;81.59;99112.39;678561;1261;139487;-79
2024/02/23 21:01:34;;;;;;;58.30;21.00;;;;;;;10.38;81.80;99120.06;678285;1260;139998;-80
2024/02/23 21:16:39;;;;;;;41.80;18.40;;;;;;;10.49;82.80;99119.00;676124;1263;138700;-79
2024/02/23 21:31:45;;;;;;;39.30;18.30;;;;;;;10.65;84.71;99112.02;676715;1259;140033;-80
2024/02/23 21:46:52;;;;;;;57.50;20.70;;;;;;;10.80;85.44;99107.74;676861;1276;139817;-79
2024/02/23 22:02:04;;;;;;;51.10;21.50;;;;;;;10.71;85.35;99111.86;676369;1262;140079;-80
2024/02/23 22:17:10;;;;;;;48.00;20.60;;;;;;;10.47;86.00;99120.88;677947;1264;140110;-79
2024/02/23 22:32:14;;;;;;;55.00;23.70;;;;;;;10.38;86.97;99121.02;677789;1260;139363;-79
2024/02/23 22:47:17;;;;;;;111.00;44.90;;;;;;;10.28;88.68;99117.96;680096;1263;139367;-80
2024/02/23 23:02:21;;;;;;;131.00;51.20;;;;;;;10.22;89.43;99117.73;677831;1263;139849;-79
2024/02/23 23:17:27;;;;;;;100.90;42.60;;;;;;;10.21;90.26;99104.39;674330;1263;139551;-81
2024/02/23 23:32:33;;;;;;;94.10;40.10;;;;;;;10.28;91.10;99096.27;680616;1264;139317;-80
2024/02/23 23:47:36;;;;;;;61.30;28.60;;;;;;;10.34;91.48;99100.23;678297;1264;138879;-80
